»·PEaware :: N333ZA KRNM-L35

N333ZA :: KRNM-L35

FLIGHT INFORMATION

Flight Status: Arrived
Operator: Privately registered:
United States
More flights under this callsign
Pilot: Judd H. (29974)
Aircraft: CESSNA 210 CENTURION
(C210)
More flights by this aircraft type
Origin: KRNM Ramona
United States
Destination: L35 Big Bear City
United States
More flights between these airports :: More routes between these airports
Route: +ROBNN J208 TRM V137 MORON
File this flight plan on PilotEdge
Remarks:
Altitude:
(Current/Filed)
11,000ft
Speed:
(Current/Filed)
150kts
Departed: 08-Nov-20 02:11 PM
Arrived: 08-Nov-20 03:06 PM
Distance/Time
Traveled:
74nm/0:55
Distance/Time
To Go:
Arrived

Flight Plot

Page will automatically refresh every two minutes.

Flight plan parsing failed; only flown route is shown


Map Options




Map Legend


Flown Route
Filed Route
Departure Airport
Arrival Airport
Navaid (VOR, NDB)
Fix

Horizontal Profiles

Position Reports

Time Latitude Longitude Heading Altitude Ground
Speed
08-Nov-20 13:50 33.039472 -116.908496 10 1396ft 0kts
08-Nov-20 13:51 33.039472 -116.908496 9 1396ft 0kts
08-Nov-20 13:52 33.039472 -116.908496 9 1396ft 0kts
08-Nov-20 13:53 33.039472 -116.908496 9 1396ft 0kts
08-Nov-20 13:54 33.039472 -116.908496 9 1396ft 0kts
08-Nov-20 13:55 33.039472 -116.908496 9 1396ft 0kts
08-Nov-20 13:56 33.039472 -116.908496 9 1396ft 0kts
08-Nov-20 13:57 33.039472 -116.908496 9 1396ft 0kts
08-Nov-20 13:58 33.039472 -116.908496 9 1396ft 0kts
08-Nov-20 13:59 33.039472 -116.908496 9 1396ft 0kts
08-Nov-20 14:00 33.039472 -116.908496 9 1396ft 0kts
08-Nov-20 14:01 33.039472 -116.908496 9 1396ft 0kts
08-Nov-20 14:02 33.039472 -116.908496 9 1396ft 0kts
08-Nov-20 14:03 33.039472 -116.908496 9 1396ft 0kts
08-Nov-20 14:04 33.039472 -116.908496 9 1396ft 0kts
08-Nov-20 14:05 33.039472 -116.908496 9 1396ft 0kts
08-Nov-20 14:06 33.039472 -116.908496 9 1396ft 0kts
08-Nov-20 14:07 33.038893 -116.908213 147 1396ft 4kts
08-Nov-20 14:08 33.038662 -116.907305 108 1396ft 3kts
08-Nov-20 14:09 33.037993 -116.907563 278 1396ft 7kts
08-Nov-20 14:10 33.044189 -116.930769 291 2063ft 116kts
08-Nov-20 14:11 33.067546 -116.961472 310 3348ft 132kts
08-Nov-20 14:12 33.093287 -116.986143 313 4684ft 118kts
08-Nov-20 14:13 33.119401 -117.010469 314 5900ft 115kts
08-Nov-20 14:14 33.145228 -117.033905 311 6994ft 117kts
08-Nov-20 14:15 33.170918 -117.058087 343 8088ft 132kts
08-Nov-20 14:16 33.197442 -117.024432 58 9138ft 161kts
08-Nov-20 14:17 33.218791 -116.977604 58 10180ft 156kts
08-Nov-20 14:18 33.240345 -116.930721 59 10978ft 174kts
08-Nov-20 14:19 33.266161 -116.876422 57 11158ft 200kts
08-Nov-20 14:20 33.296330 -116.818608 58 11098ft 207kts
08-Nov-20 14:21 33.327134 -116.760407 57 11016ft 206kts
08-Nov-20 14:22 33.356876 -116.701826 60 10912ft 206kts
08-Nov-20 14:23 33.385822 -116.644082 57 10943ft 201kts
08-Nov-20 14:24 33.414482 -116.587805 58 11010ft 199kts
08-Nov-20 14:25 33.442515 -116.530334 58 10959ft 198kts
08-Nov-20 14:26 33.481322 -116.492837 4 10973ft 183kts
08-Nov-20 14:27 33.532153 -116.486018 1 10949ft 183kts
08-Nov-20 14:28 33.582354 -116.479062 2 10940ft 181kts
08-Nov-20 14:29 33.632361 -116.472615 3 10930ft 179kts
08-Nov-20 14:30 33.683606 -116.463226 4 11003ft 182kts
08-Nov-20 14:31 33.732682 -116.453327 6 11001ft 177kts
08-Nov-20 14:32 33.781367 -116.442124 6 10984ft 179kts
08-Nov-20 14:33 33.830802 -116.434383 0 10983ft 178kts
08-Nov-20 14:34 33.880277 -116.429319 0 10983ft 179kts
08-Nov-20 14:35 33.925072 -116.448594 330 10984ft 173kts
08-Nov-20 14:36 33.970104 -116.470129 341 10979ft 177kts
08-Nov-20 14:37 34.017608 -116.486707 337 10971ft 178kts
08-Nov-20 14:38 34.065068 -116.504986 337 10965ft 179kts
08-Nov-20 14:39 34.109946 -116.521305 337 10958ft 162kts
08-Nov-20 14:40 34.153592 -116.538932 334 10944ft 169kts
08-Nov-20 14:41 34.198446 -116.557293 334 10940ft 170kts
08-Nov-20 14:43 34.245221 -116.576490 333 10492ft 185kts
08-Nov-20 14:44 34.264460 -116.627599 279 9804ft 175kts
08-Nov-20 14:45 34.264418 -116.687101 261 8556ft 168kts
08-Nov-20 14:46 34.262061 -116.733617 268 8392ft 128kts
08-Nov-20 14:47 34.264646 -116.777913 265 8135ft 134kts
08-Nov-20 14:48 34.263676 -116.819997 265 7625ft 98kts
08-Nov-20 14:49 34.263962 -116.851721 265 7112ft 102kts
08-Nov-20 14:50 34.262491 -116.881698 267 8196ft 83kts
08-Nov-20 14:51 34.276806 -116.905536 315 9261ft 103kts
08-Nov-20 14:52 34.308048 -116.902700 30 10449ft 133kts
08-Nov-20 14:53 34.322628 -116.857517 78 11039ft 170kts
08-Nov-20 14:54 34.334402 -116.796463 78 11031ft 193kts
08-Nov-20 14:55 34.349926 -116.730153 70 10448ft 213kts
08-Nov-20 14:56 34.370531 -116.663686 70 9996ft 207kts
08-Nov-20 14:57 34.370955 -116.602561 154 9480ft 177kts
08-Nov-20 14:58 34.329422 -116.610686 209 9334ft 141kts
08-Nov-20 14:59 34.292827 -116.631201 208 8873ft 153kts
08-Nov-20 14:59 34.264653 -116.653677 250 8635ft 139kts
08-Nov-20 15:01 34.265203 -116.709000 264 8288ft 138kts
08-Nov-20 15:02 34.263498 -116.751581 266 7804ft 118kts
08-Nov-20 15:02 34.264943 -116.783604 263 7414ft 116kts
08-Nov-20 15:03 34.264765 -116.816317 263 6936ft 76kts
08-Nov-20 15:04 34.263898 -116.841696 267 6935ft 77kts
08-Nov-20 15:05 34.262902 -116.853558 128 6755ft 4kts
08-Nov-20 15:06 34.263006 -116.852799 2 6755ft 0kts
08-Nov-20 15:07 34.263006 -116.852799 2 6755ft 0kts
08-Nov-20 15:08 34.263006 -116.852799 2 6755ft 0kts

Navigation Log

Ident Type
Flight plan parsing failed, navigation log unavailable